createdAt,value
2023-12-23T00:01:02.438Z,97519.19
2023-12-23T00:03:29.329Z,97516.41
2023-12-23T00:05:56.213Z,97530.25
2023-12-23T00:08:23.736Z,97530.81
2023-12-23T00:10:51.331Z,97549.28
2023-12-23T00:13:18.214Z,97555.91
2023-12-23T00:15:45.243Z,97556.75
2023-12-23T00:18:12.284Z,97559.13
2023-12-23T00:20:39.278Z,97554.50
2023-12-23T00:23:06.223Z,97543.38
2023-12-23T00:25:33.190Z,97545.97
2023-12-23T00:28:00.054Z,97562.69
2023-12-23T00:30:26.854Z,97549.78
2023-12-23T00:32:53.726Z,97559.41
2023-12-23T00:35:20.549Z,97572.47
2023-12-23T00:37:47.929Z,97548.81
2023-12-23T00:40:16.670Z,97529.75
2023-12-23T00:42:44.419Z,97543.78
2023-12-23T00:45:11.411Z,97536.88
2023-12-23T00:47:39.561Z,97559.78
2023-12-23T00:50:07.142Z,97561.13
2023-12-23T00:52:35.214Z,97589.78
2023-12-23T00:55:03.175Z,97589.38
2023-12-23T00:57:29.955Z,97611.72
2023-12-23T00:59:58.307Z,97639.47
2023-12-23T01:02:25.207Z,97625.59
2023-12-23T01:04:52.056Z,97643.66
2023-12-23T01:07:19.299Z,97649.06
2023-12-23T01:09:46.173Z,97645.69
2023-12-23T01:12:13.108Z,97643.44
2023-12-23T01:14:40.049Z,97644.44
2023-12-23T01:17:07.141Z,97653.75
2023-12-23T01:19:34.131Z,97669.28
2023-12-23T01:22:01.764Z,97666.56
2023-12-23T01:24:28.743Z,97673.03
2023-12-23T01:26:55.605Z,97683.66
2023-12-23T01:29:22.571Z,97673.84
2023-12-23T01:31:49.626Z,97686.88
2023-12-23T01:34:16.578Z,97673.91
2023-12-23T01:36:43.378Z,97665.59
2023-12-23T01:39:10.319Z,97685.81
2023-12-23T01:41:37.202Z,97683.44
2023-12-23T01:44:04.180Z,97696.69
2023-12-23T01:46:31.153Z,97694.38
2023-12-23T01:48:59.960Z,97700.81
2023-12-23T01:51:27.022Z,97694.59
2023-12-23T01:53:54.205Z,97693.34
2023-12-23T01:56:21.157Z,97700.81
2023-12-23T01:58:48.132Z,97700.06
2023-12-23T02:01:15.065Z,97696.72
2023-12-23T02:03:42.253Z,97681.69
2023-12-23T02:06:09.768Z,97710.03
2023-12-23T02:08:36.679Z,97705.84
2023-12-23T02:11:06.259Z,97720.66
2023-12-23T02:13:52.720Z,97721.94
2023-12-23T02:16:19.790Z,97708.22
2023-12-23T02:18:46.895Z,97726.59
2023-12-23T02:21:13.920Z,97735.97
2023-12-23T02:23:40.815Z,97728.19
2023-12-23T02:26:10.286Z,97722.78
2023-12-23T02:28:40.383Z,97736.56
2023-12-23T02:31:09.192Z,97721.72
2023-12-23T02:33:37.364Z,97739.63
2023-12-23T02:36:05.416Z,97725.66
2023-12-23T02:38:32.250Z,97722.53
2023-12-23T02:40:59.123Z,97736.78
2023-12-23T02:43:26.417Z,97739.88
2023-12-23T02:45:53.261Z,97745.84
2023-12-23T02:48:20.691Z,97735.72
2023-12-23T02:50:47.591Z,97748.44
2023-12-23T02:53:14.397Z,97748.66
2023-12-23T02:55:41.413Z,97741.66
2023-12-23T02:58:08.256Z,97736.72
2023-12-23T03:00:35.226Z,97734.13
2023-12-23T03:03:02.153Z,97735.97
2023-12-23T03:05:29.246Z,97736.19
2023-12-23T03:07:56.369Z,97719.34
2023-12-23T03:10:23.267Z,97726.38
2023-12-23T03:12:50.383Z,97723.47
2023-12-23T03:15:17.732Z,97707.66
2023-12-23T03:17:44.626Z,97711.78
2023-12-23T03:20:11.864Z,97693.66
2023-12-23T03:22:38.844Z,97721.31
2023-12-23T03:25:06.168Z,97708.59
2023-12-23T03:27:33.107Z,97690.69
2023-12-23T03:29:59.920Z,97679.53
2023-12-23T03:32:26.759Z,97691.44
2023-12-23T03:34:53.738Z,97684.34
2023-12-23T03:37:20.591Z,97704.25
2023-12-23T03:39:47.495Z,97703.97
2023-12-23T03:42:14.324Z,97705.78
2023-12-23T03:44:41.218Z,97711.50
2023-12-23T03:47:08.132Z,97703.94
2023-12-23T03:49:35.033Z,97699.19
2023-12-23T03:54:52.848Z,97692.97
2023-12-23T03:57:19.656Z,97711.25
2023-12-23T03:59:46.510Z,97691.16
2023-12-23T04:02:13.474Z,97696.44
2023-12-23T04:04:40.402Z,97694.19
2023-12-23T04:07:07.456Z,97697.19
2023-12-23T04:09:34.329Z,97716.56
2023-12-23T04:12:01.218Z,97722.84
2023-12-23T04:14:28.137Z,97729.50
2023-12-23T04:16:54.978Z,97733.53
2023-12-23T04:19:21.966Z,97743.94
2023-12-23T04:21:48.867Z,97751.31
2023-12-23T04:24:15.782Z,97768.66
2023-12-23T04:26:42.760Z,97780.31
2023-12-23T04:29:09.703Z,97802.28
2023-12-23T04:31:36.785Z,97814.22
2023-12-23T04:34:04.085Z,97821.03
2023-12-23T04:36:31.086Z,97829.16
2023-12-23T04:38:58.614Z,97842.22
2023-12-23T04:41:25.601Z,97855.53
2023-12-23T04:43:52.664Z,97842.03
2023-12-23T04:46:19.649Z,97869.56
2023-12-23T04:48:46.637Z,97858.47
2023-12-23T04:51:13.644Z,97856.16
2023-12-23T04:53:40.510Z,97890.03
2023-12-23T04:56:07.716Z,97948.38
2023-12-23T04:58:34.583Z,97960.28
2023-12-23T05:01:01.516Z,97974.06
2023-12-23T05:03:28.941Z,97975.53
2023-12-23T05:05:55.906Z,97982.84
2023-12-23T05:08:22.765Z,97979.53
2023-12-23T05:10:49.708Z,97961.09
2023-12-23T05:13:16.562Z,97974.03
2023-12-23T05:15:43.493Z,97987.72
2023-12-23T05:18:10.369Z,98002.25
2023-12-23T05:20:37.290Z,98007.34
2023-12-23T05:23:04.261Z,97994.59
2023-12-23T05:25:31.994Z,97990.13
2023-12-23T05:27:58.790Z,98014.47
2023-12-23T05:30:26.478Z,98001.19
2023-12-23T05:32:53.620Z,98033.56
2023-12-23T05:35:20.886Z,98032.03
2023-12-23T05:37:47.793Z,98027.00
2023-12-23T05:40:14.859Z,98033.22
2023-12-23T05:42:41.698Z,98029.78
2023-12-23T05:45:09.270Z,98039.13
2023-12-23T05:47:36.411Z,98056.69
2023-12-23T05:50:03.387Z,98053.28
2023-12-23T05:52:30.243Z,98060.78
2023-12-23T05:54:57.786Z,98078.50
2023-12-23T05:57:24.608Z,98072.84
2023-12-23T05:59:51.471Z,98088.50
2023-12-23T06:02:18.363Z,98080.97
2023-12-23T06:04:45.369Z,98089.81
2023-12-23T06:07:12.252Z,98093.38
2023-12-23T06:09:39.102Z,98095.69
2023-12-23T06:12:06.376Z,98099.59
2023-12-23T06:14:33.192Z,98113.84
2023-12-23T06:17:03.229Z,98112.94
2023-12-23T06:19:30.078Z,98107.28
2023-12-23T06:21:56.864Z,98125.47
2023-12-23T06:24:23.634Z,98123.88
2023-12-23T06:26:50.522Z,98127.97
2023-12-23T06:29:17.396Z,98132.41
2023-12-23T06:31:44.265Z,98137.84
2023-12-23T06:34:11.193Z,98159.13
2023-12-23T06:36:38.046Z,98156.25
2023-12-23T06:39:04.868Z,98167.72
2023-12-23T06:41:31.622Z,98163.28
2023-12-23T06:43:58.446Z,98174.22
2023-12-23T06:46:25.885Z,98188.75
2023-12-23T06:48:53.227Z,98192.69
2023-12-23T06:51:20.092Z,98186.44
2023-12-23T06:53:48.883Z,98208.00
2023-12-23T06:56:15.837Z,98222.53
2023-12-23T06:58:44.525Z,98223.59
2023-12-23T07:01:11.367Z,98217.09
2023-12-23T07:03:38.285Z,98218.94
2023-12-23T07:06:05.427Z,98225.69
2023-12-23T07:08:32.253Z,98231.44
2023-12-23T07:10:59.134Z,98228.31
2023-12-23T07:13:26.250Z,98242.63
2023-12-23T07:15:53.047Z,98238.50
2023-12-23T07:18:19.926Z,98239.03
2023-12-23T07:20:46.787Z,98238.03
2023-12-23T07:23:13.621Z,98250.03
2023-12-23T07:25:40.505Z,98252.91
2023-12-23T07:28:07.537Z,98256.81
2023-12-23T07:30:34.403Z,98277.91
2023-12-23T07:33:01.490Z,98272.47
2023-12-23T07:35:28.448Z,98275.34
2023-12-23T07:37:55.358Z,98280.31
2023-12-23T07:40:22.355Z,98278.78
2023-12-23T07:42:49.576Z,98266.91
2023-12-23T07:45:16.964Z,98268.44
2023-12-23T07:47:44.010Z,98261.22
2023-12-23T07:50:11.184Z,98262.81
2023-12-23T07:52:38.268Z,98284.38
2023-12-23T07:55:05.594Z,98277.38
2023-12-23T07:57:32.602Z,98280.78
2023-12-23T07:59:59.628Z,98269.63
2023-12-23T08:02:26.622Z,98265.22
2023-12-23T08:04:53.795Z,98266.50
2023-12-23T08:07:21.143Z,98267.00
2023-12-23T08:09:48.146Z,98261.56
2023-12-23T08:12:15.090Z,98267.78
2023-12-23T08:14:42.037Z,98262.56
2023-12-23T08:17:09.062Z,98251.38
2023-12-23T08:19:36.139Z,98254.19
2023-12-23T08:22:03.162Z,98261.22
2023-12-23T08:24:30.130Z,98254.72
2023-12-23T08:26:57.859Z,98264.06
2023-12-23T08:29:24.792Z,98273.69
2023-12-23T08:31:52.136Z,98269.78
2023-12-23T08:34:20.793Z,98283.53
2023-12-23T08:36:49.227Z,98280.41
2023-12-23T08:39:16.318Z,98274.19
2023-12-23T08:41:43.250Z,98269.78
2023-12-23T08:44:10.313Z,98272.63
2023-12-23T08:46:37.323Z,98260.94
2023-12-23T08:49:04.459Z,98269.25
2023-12-23T08:51:31.796Z,98266.66
2023-12-23T08:53:59.122Z,98275.75
2023-12-23T08:56:26.208Z,98278.63
2023-12-23T08:58:53.324Z,98284.31
2023-12-23T09:01:20.309Z,98282.28
2023-12-23T09:03:47.393Z,98275.03
2023-12-23T09:06:14.498Z,98290.41
2023-12-23T09:08:41.569Z,98291.19
2023-12-23T09:11:08.674Z,98276.69
2023-12-23T09:13:35.673Z,98274.09
2023-12-23T09:16:03.944Z,98274.16
2023-12-23T09:18:31.031Z,98293.91
2023-12-23T09:20:58.352Z,98286.91
2023-12-23T09:23:25.566Z,98296.50
2023-12-23T09:25:52.630Z,98305.59
2023-12-23T09:28:19.644Z,98302.97
2023-12-23T09:30:46.712Z,98302.72
2023-12-23T09:33:13.799Z,98296.25
2023-12-23T09:35:40.901Z,98294.44
2023-12-23T09:38:07.998Z,98302.75
2023-12-23T09:40:35.005Z,98291.63
2023-12-23T09:43:02.735Z,98279.19
2023-12-23T09:45:32.110Z,98291.38
2023-12-23T09:47:59.479Z,98273.75
2023-12-23T09:50:26.663Z,98275.31
2023-12-23T09:52:54.240Z,98263.66
2023-12-23T09:55:22.045Z,98261.88
2023-12-23T09:57:49.412Z,98252.78
2023-12-23T10:00:16.943Z,98263.16
2023-12-23T10:02:43.964Z,98257.97
2023-12-23T10:05:10.998Z,98249.69
2023-12-23T10:07:38.554Z,98241.13
2023-12-23T10:10:06.233Z,98238.56
2023-12-23T10:12:33.170Z,98244.78
2023-12-23T10:15:00.278Z,98230.53
2023-12-23T10:17:27.420Z,98228.47
2023-12-23T10:19:54.398Z,98227.41
2023-12-23T10:22:27.374Z,98228.47
2023-12-23T10:24:54.272Z,98224.56
2023-12-23T10:27:22.246Z,98219.38
2023-12-23T10:29:59.084Z,98209.53
2023-12-23T10:32:31.002Z,98207.22
2023-12-23T10:35:02.070Z,98201.00
2023-12-23T10:37:30.561Z,98184.16
2023-12-23T10:40:10.699Z,98174.56
2023-12-23T10:42:39.704Z,98168.13
2023-12-23T10:45:07.980Z,98160.38
2023-12-23T10:47:36.368Z,98151.81
2023-12-23T10:50:05.481Z,98152.59
2023-12-23T10:52:33.519Z,98130.06
2023-12-23T10:55:03.829Z,98118.94
2023-12-23T10:57:32.619Z,98113.50
2023-12-23T10:59:59.803Z,98114.28
2023-12-23T11:02:29.169Z,98095.13
2023-12-23T11:04:59.188Z,98089.69
2023-12-23T11:07:30.603Z,98086.88
2023-12-23T11:10:00.865Z,98084.50
2023-12-23T11:12:29.715Z,98096.94
2023-12-23T11:14:58.858Z,98083.75
2023-12-23T11:17:28.901Z,98069.75
2023-12-23T11:20:00.611Z,98059.16
2023-12-23T11:22:38.779Z,98055.78
2023-12-23T11:25:37.389Z,98029.94
2023-12-23T11:28:11.086Z,98021.16
2023-12-23T11:30:51.801Z,98014.94
2023-12-23T11:33:22.968Z,98009.75
2023-12-23T11:35:51.643Z,98008.72
2023-12-23T11:38:18.701Z,97985.94
2023-12-23T11:40:47.423Z,97973.56
2023-12-23T11:43:15.400Z,97976.63
2023-12-23T11:45:43.756Z,97961.63
2023-12-23T11:48:11.546Z,97964.75
2023-12-23T11:50:38.638Z,97953.38
2023-12-23T11:53:06.924Z,97935.75
2023-12-23T11:55:35.275Z,97942.75
2023-12-23T11:58:02.460Z,97921.81
2023-12-23T12:00:31.020Z,97926.75
2023-12-23T12:02:58.596Z,97928.03
2023-12-23T12:05:25.616Z,97922.84
2023-12-23T12:07:52.655Z,97903.22
2023-12-23T12:10:19.812Z,97907.88
2023-12-23T12:12:46.860Z,97913.06
2023-12-23T12:15:13.770Z,97891.88
2023-12-23T12:17:40.889Z,97915.69
2023-12-23T12:20:08.656Z,97900.13
2023-12-23T12:22:35.630Z,97890.31
2023-12-23T12:25:02.759Z,97894.41
2023-12-23T12:27:30.886Z,97886.91
2023-12-23T12:29:59.325Z,97865.72
2023-12-23T12:32:26.357Z,97853.56
2023-12-23T12:35:23.895Z,97873.22
2023-12-23T12:37:51.001Z,97868.03
2023-12-23T12:43:08.774Z,97870.28
2023-12-23T12:48:30.293Z,97825.44
2023-12-23T12:50:57.809Z,97820.88
2023-12-23T12:53:25.588Z,97832.09
2023-12-23T12:55:52.673Z,97805.41
2023-12-23T12:58:19.696Z,97803.72
2023-12-23T13:00:46.634Z,97800.44
2023-12-23T13:03:38.786Z,97788.44
2023-12-23T13:06:06.089Z,97779.56
2023-12-23T13:08:33.154Z,97766.09
2023-12-23T13:11:00.223Z,97779.25
2023-12-23T13:13:27.243Z,97755.44
2023-12-23T13:15:54.274Z,97752.47
2023-12-23T13:18:21.330Z,97752.97
2023-12-23T13:20:49.673Z,97765.28
2023-12-23T13:23:16.764Z,97756.31
2023-12-23T13:25:45.091Z,97745.75
2023-12-23T13:28:12.126Z,97744.34
2023-12-23T13:30:39.160Z,97750.41
2023-12-23T13:33:06.240Z,97731.63
2023-12-23T13:35:33.338Z,97739.91
2023-12-23T13:38:00.465Z,97731.31
2023-12-23T13:40:27.397Z,97724.50
2023-12-23T13:42:54.551Z,97706.66
2023-12-23T13:45:21.774Z,97728.19
2023-12-23T13:47:50.408Z,97719.53
2023-12-23T13:50:18.972Z,97723.72
2023-12-23T13:52:46.172Z,97707.84
2023-12-23T13:55:13.061Z,97733.06
2023-12-23T13:57:40.031Z,97727.09
2023-12-23T14:00:07.540Z,97710.22
2023-12-23T14:02:34.533Z,97707.94
2023-12-23T14:05:01.591Z,97719.47
2023-12-23T14:07:28.628Z,97693.06
2023-12-23T14:09:55.504Z,97714.41
2023-12-23T14:12:22.515Z,97704.88
2023-12-23T14:14:49.429Z,97718.56
2023-12-23T14:17:16.456Z,97719.66
2023-12-23T14:19:43.370Z,97727.25
2023-12-23T14:22:10.337Z,97699.91
2023-12-23T14:24:37.344Z,97713.88
2023-12-23T14:27:04.332Z,97717.06
2023-12-23T14:29:31.340Z,97714.31
2023-12-23T14:31:58.408Z,97701.28
2023-12-23T14:34:25.352Z,97695.09
2023-12-23T14:36:52.461Z,97702.34
2023-12-23T14:39:22.632Z,97705.72
2023-12-23T14:41:51.446Z,97716.78
2023-12-23T14:44:18.537Z,97730.31
2023-12-23T14:46:45.799Z,97733.53
2023-12-23T14:49:13.424Z,97728.16
2023-12-23T14:51:40.592Z,97729.56
2023-12-23T14:54:07.647Z,97721.41
2023-12-23T14:56:34.682Z,97711.88
2023-12-23T14:59:01.849Z,97747.97
2023-12-23T15:01:28.931Z,97716.00
2023-12-23T15:03:55.959Z,97724.94
2023-12-23T15:06:23.093Z,97730.16
2023-12-23T15:08:50.225Z,97723.38
2023-12-23T15:11:17.220Z,97727.53
2023-12-23T15:13:44.256Z,97727.50
2023-12-23T15:16:11.217Z,97730.91
2023-12-23T15:18:38.471Z,97735.03
2023-12-23T15:21:07.022Z,97738.72
2023-12-23T15:23:34.228Z,97712.75
2023-12-23T15:26:01.297Z,97742.41
2023-12-23T15:28:31.129Z,97748.09
2023-12-23T15:30:58.141Z,97751.19
2023-12-23T15:33:25.123Z,97761.28
2023-12-23T15:35:52.173Z,97772.53
2023-12-23T15:38:19.131Z,97756.56
2023-12-23T15:40:46.190Z,97778.56
2023-12-23T15:43:15.698Z,97753.47
2023-12-23T15:45:43.286Z,97798.53
2023-12-23T15:48:10.484Z,97790.84
2023-12-23T15:50:37.663Z,97773.63
2023-12-23T15:53:04.945Z,97794.38
2023-12-23T15:55:34.603Z,97802.69
2023-12-23T15:58:03.064Z,97807.91
2023-12-23T16:00:30.305Z,97790.84
2023-12-23T16:05:42.322Z,97829.91
2023-12-23T16:08:09.882Z,97815.13
2023-12-23T16:10:38.110Z,97806.50
2023-12-23T16:13:05.499Z,97803.75
2023-12-23T16:15:33.652Z,97809.91
2023-12-23T16:18:01.282Z,97833.75
2023-12-23T16:20:30.926Z,97826.34
2023-12-23T16:23:02.526Z,97857.91
2023-12-23T16:25:29.804Z,97833.75
2023-12-23T16:27:56.929Z,97858.19
2023-12-23T16:30:23.957Z,97853.91
2023-12-23T16:32:51.196Z,97885.28
2023-12-23T16:35:18.474Z,97884.97
2023-12-23T16:37:46.092Z,97915.94
2023-12-23T16:40:13.768Z,97926.53
2023-12-23T16:42:40.812Z,97946.69
2023-12-23T16:45:09.539Z,97963.81
2023-12-23T16:47:36.798Z,97973.34
2023-12-23T16:50:05.239Z,97999.19
2023-12-23T16:52:32.477Z,98022.75
2023-12-23T16:55:00.019Z,98034.63
2023-12-23T16:57:27.013Z,98054.97
2023-12-23T16:59:53.975Z,98070.97
2023-12-23T17:02:23.302Z,98071.56
2023-12-23T17:04:51.458Z,98076.66
2023-12-23T17:07:18.481Z,98092.81
2023-12-23T17:09:45.531Z,98104.22
2023-12-23T17:12:12.491Z,98124.31
2023-12-23T17:14:39.466Z,98123.28
2023-12-23T17:17:06.512Z,98133.22
2023-12-23T17:19:34.110Z,98140.31
2023-12-23T17:22:01.086Z,98136.47
2023-12-23T17:24:28.196Z,98156.69
2023-12-23T17:26:55.091Z,98158.38
2023-12-23T17:29:22.206Z,98146.25
2023-12-23T17:31:49.300Z,98171.25
2023-12-23T17:34:16.328Z,98157.81
2023-12-23T17:36:43.510Z,98175.66
2023-12-23T17:39:14.880Z,98157.63
2023-12-23T17:41:44.192Z,98150.13
2023-12-23T17:44:11.174Z,98176.66
2023-12-23T17:46:38.175Z,98170.84
2023-12-23T17:49:05.232Z,98176.97
2023-12-23T17:51:32.216Z,98185.75
2023-12-23T17:53:59.259Z,98179.56
2023-12-23T17:56:26.364Z,98184.53
2023-12-23T17:58:53.322Z,98174.94
2023-12-23T18:01:20.288Z,98197.53
2023-12-23T18:03:47.407Z,98198.78
2023-12-23T18:06:14.416Z,98198.84
2023-12-23T18:08:41.420Z,98201.38
2023-12-23T18:11:08.508Z,98209.16
2023-12-23T18:13:35.459Z,98201.69
2023-12-23T18:16:02.486Z,98206.66
2023-12-23T18:18:29.586Z,98216.00
2023-12-23T18:20:56.552Z,98214.69
2023-12-23T18:23:23.635Z,98206.03
2023-12-23T18:25:50.771Z,98233.34
2023-12-23T18:28:17.767Z,98215.97
2023-12-23T18:30:45.010Z,98214.06
2023-12-23T18:33:12.269Z,98226.31
2023-12-23T18:35:39.399Z,98228.56
2023-12-23T18:38:06.574Z,98233.78
2023-12-23T18:40:33.634Z,98230.94
2023-12-23T18:43:00.575Z,98243.00
2023-12-23T18:45:27.776Z,98245.72
2023-12-23T18:47:54.707Z,98242.47
2023-12-23T18:50:21.789Z,98237.78
2023-12-23T18:52:50.422Z,98257.84
2023-12-23T18:55:17.618Z,98254.97
2023-12-23T18:57:44.607Z,98268.81
2023-12-23T19:00:12.128Z,98271.47
2023-12-23T19:02:39.204Z,98274.34
2023-12-23T19:05:06.536Z,98257.72
2023-12-23T19:07:33.517Z,98262.09
2023-12-23T19:10:00.580Z,98272.25
2023-12-23T19:12:27.585Z,98281.31
2023-12-23T19:14:54.657Z,98281.41
2023-12-23T19:17:21.710Z,98283.78
2023-12-23T19:19:48.732Z,98269.66
2023-12-23T19:22:15.749Z,98305.41
2023-12-23T19:24:45.931Z,98291.22
2023-12-23T19:27:13.205Z,98294.28
2023-12-23T19:29:40.302Z,98301.22
2023-12-23T19:32:07.299Z,98303.03
2023-12-23T19:34:34.438Z,98312.34
2023-12-23T19:37:01.512Z,98298.47
2023-12-23T19:39:28.414Z,98315.78
2023-12-23T19:41:55.201Z,98318.41
2023-12-23T19:44:22.134Z,98308.94
2023-12-23T19:46:49.173Z,98318.69
2023-12-23T19:49:16.204Z,98324.97
2023-12-23T19:51:43.105Z,98319.97
2023-12-23T19:54:09.845Z,98334.06
2023-12-23T19:56:36.758Z,98311.16
2023-12-23T19:59:03.694Z,98342.41
2023-12-23T20:01:30.828Z,98331.44
2023-12-23T20:03:57.640Z,98321.50
2023-12-23T20:06:24.982Z,98323.03
2023-12-23T20:08:51.958Z,98324.28
2023-12-23T20:11:28.097Z,98321.53
2023-12-23T20:13:54.925Z,98349.66
2023-12-23T20:16:28.784Z,98352.31
2023-12-23T20:18:56.273Z,98344.47
2023-12-23T20:21:24.113Z,98334.84
2023-12-23T20:23:52.219Z,98339.44
2023-12-23T20:26:20.114Z,98352.13
2023-12-23T20:28:47.293Z,98332.00
2023-12-23T20:31:16.035Z,98317.88
2023-12-23T20:33:43.312Z,98344.22
2023-12-23T20:36:10.261Z,98341.78
2023-12-23T20:38:37.117Z,98343.72
2023-12-23T20:41:06.613Z,98329.75
2023-12-23T20:43:33.554Z,98322.81
2023-12-23T20:46:00.468Z,98330.31
2023-12-23T20:48:27.380Z,98339.19
2023-12-23T20:50:56.564Z,98334.00
2023-12-23T20:53:24.226Z,98361.81
2023-12-23T20:55:51.232Z,98341.63
2023-12-23T20:58:18.099Z,98280.81
2023-12-23T21:00:44.978Z,98335.03
2023-12-23T21:03:11.898Z,98350.16
2023-12-23T21:05:38.918Z,98332.31
2023-12-23T21:08:06.292Z,98347.09
2023-12-23T21:10:35.558Z,98325.53
2023-12-23T21:13:03.694Z,98323.16
2023-12-23T21:15:30.509Z,98333.72
2023-12-23T21:17:57.465Z,98294.72
2023-12-23T21:20:24.379Z,98316.19
2023-12-23T21:22:51.595Z,98320.84
2023-12-23T21:25:18.456Z,98298.66
2023-12-23T21:27:45.279Z,98331.72
2023-12-23T21:30:12.492Z,98318.75
2023-12-23T21:32:39.494Z,98310.59
2023-12-23T21:35:06.595Z,98323.88
2023-12-23T21:37:33.670Z,98319.50
2023-12-23T21:40:00.587Z,98276.09
2023-12-23T21:42:27.394Z,98293.16
2023-12-23T21:44:54.220Z,98306.94
2023-12-23T21:47:21.616Z,98292.31
2023-12-23T21:49:48.547Z,98313.91
2023-12-23T21:52:15.367Z,98309.31
2023-12-23T21:54:42.180Z,98298.03
2023-12-23T21:57:09.032Z,98316.38
2023-12-23T21:59:35.842Z,98278.75
2023-12-23T22:02:02.753Z,98295.13
2023-12-23T22:04:29.546Z,98309.28
2023-12-23T22:06:57.384Z,98302.06
2023-12-23T22:09:24.194Z,98312.09
2023-12-23T22:11:50.950Z,98276.56
2023-12-23T22:14:17.809Z,98305.00
2023-12-23T22:16:44.614Z,98307.03
2023-12-23T22:19:11.456Z,98276.09
2023-12-23T22:21:38.517Z,98287.78
2023-12-23T22:24:05.747Z,98295.34
2023-12-23T22:26:32.633Z,98318.28
2023-12-23T22:28:59.443Z,98310.41
2023-12-23T22:31:26.255Z,98305.97
2023-12-23T22:33:53.166Z,98318.94
2023-12-23T22:36:20.014Z,98291.66
2023-12-23T22:38:46.812Z,98316.31
2023-12-23T22:41:13.744Z,98307.09
2023-12-23T22:43:40.686Z,98271.47
2023-12-23T22:46:07.956Z,98309.28
2023-12-23T22:48:34.994Z,98274.00
2023-12-23T22:51:01.807Z,98295.56
2023-12-23T22:53:28.666Z,98315.31
2023-12-23T22:55:55.509Z,98285.41
2023-12-23T22:58:22.273Z,98287.25
2023-12-23T23:00:49.068Z,98297.88
2023-12-23T23:03:15.852Z,98294.66
2023-12-23T23:05:42.782Z,98298.50
2023-12-23T23:08:09.579Z,98296.78
2023-12-23T23:10:36.572Z,98297.13
2023-12-23T23:13:03.474Z,98304.03
2023-12-23T23:15:30.328Z,98301.84
2023-12-23T23:17:57.325Z,98313.25
2023-12-23T23:20:24.332Z,98312.50
2023-12-23T23:22:51.849Z,98300.44
2023-12-23T23:25:18.906Z,98316.66
2023-12-23T23:28:10.141Z,98334.03
2023-12-23T23:30:36.989Z,98311.00
2023-12-23T23:33:04.023Z,98331.44
2023-12-23T23:35:31.380Z,98319.41
2023-12-23T23:37:58.262Z,98324.34
2023-12-23T23:40:25.183Z,98339.13
2023-12-23T23:42:52.172Z,98345.94
2023-12-23T23:45:19.213Z,98319.09
2023-12-23T23:47:46.077Z,98285.06
2023-12-23T23:50:13.117Z,98322.63
2023-12-23T23:52:39.948Z,98322.31
2023-12-23T23:55:08.288Z,98332.94
2023-12-23T23:57:39.917Z,98317.06
